Time;durP1;ratioP1;P1;durP2;ratioP2;P2;SDS_P1;SDS_P2;PMS_P1;PMS_P2;Temp;Humidity;BMP_temperature;BMP_pressure;BME280_temperature;BME280_humidity;BME280_pressure;Samples;Min_cycle;Max_cycle;Signal;HPM_P1;HPM_P2
2022/11/22 00:00:44;;;;;;;3.45;2.78;;;22.60;58.50;;;;;;5063510;28;20457;-67
2022/11/22 00:03:10;;;;;;;4.55;3.22;;;22.60;58.40;;;;;;5002447;28;20045;-67
2022/11/22 00:05:37;;;;;;;5.60;3.72;;;22.50;58.40;;;;;;5067488;28;20041;-65
2022/11/22 00:08:03;;;;;;;4.45;3.50;;;22.50;58.40;;;;;;5073100;28;20031;-67
2022/11/22 00:10:29;;;;;;;5.90;3.80;;;22.60;58.30;;;;;;5071976;28;20093;-67
2022/11/22 00:12:55;;;;;;;4.68;3.08;;;22.60;58.20;;;;;;5074134;28;20039;-67
2022/11/22 00:15:21;;;;;;;3.50;3.20;;;22.60;58.10;;;;;;5072167;28;20112;-67
2022/11/22 00:17:47;;;;;;;4.05;3.47;;;22.60;58.10;;;;;;5073718;28;20115;-67
2022/11/22 00:20:13;;;;;;;4.28;3.25;;;22.70;58.00;;;;;;5072585;28;20035;-67
2022/11/22 00:22:39;;;;;;;3.10;2.80;;;22.60;58.10;;;;;;5056036;28;20047;-67
2022/11/22 00:25:06;;;;;;;3.63;2.97;;;22.70;57.90;;;;;;5069255;28;20033;-67
2022/11/22 00:27:32;;;;;;;3.38;2.50;;;22.70;58.10;;;;;;5053775;28;20041;-67
2022/11/22 00:29:58;;;;;;;2.90;2.58;;;22.60;57.80;;;;;;5057841;28;20023;-67
2022/11/22 00:32:24;;;;;;;2.70;2.50;;;22.60;57.80;;;;;;5072568;28;20029;-68
2022/11/22 00:34:50;;;;;;;2.58;2.38;;;22.50;57.80;;;;;;5073449;28;20051;-67
2022/11/22 00:37:16;;;;;;;2.55;2.35;;;22.60;57.70;;;;;;5073538;28;20043;-67
2022/11/22 00:39:42;;;;;;;2.40;2.17;;;22.50;57.80;;;;;;5072621;28;20043;-67
2022/11/22 00:42:08;;;;;;;2.92;2.22;;;22.50;57.80;;;;;;5072374;28;20326;-67
2022/11/22 00:44:34;;;;;;;3.45;2.88;;;22.40;57.70;;;;;;5072641;28;20040;-67
2022/11/22 00:47:00;;;;;;;2.65;2.45;;;22.40;57.80;;;;;;5072548;28;20045;-68
2022/11/22 00:49:26;;;;;;;2.92;2.42;;;22.40;57.70;;;;;;5073122;28;20033;-67
2022/11/22 00:51:52;;;;;;;2.50;2.30;;;22.40;57.70;;;;;;5073609;28;20056;-67
2022/11/22 00:54:18;;;;;;;3.08;2.72;;;22.40;57.90;;;;;;5071419;28;20123;-67
2022/11/22 00:56:44;;;;;;;2.85;2.10;;;22.40;57.80;;;;;;5057081;28;20029;-67
2022/11/22 00:59:10;;;;;;;2.92;2.40;;;22.30;57.80;;;;;;5065459;28;20452;-68
2022/11/22 01:01:36;;;;;;;3.78;2.80;;;22.30;57.80;;;;;;5072442;28;20028;-67
2022/11/22 01:04:02;;;;;;;2.60;2.40;;;22.30;57.70;;;;;;5072776;28;20063;-67
2022/11/22 01:06:28;;;;;;;3.03;2.65;;;22.30;57.70;;;;;;5059377;28;20052;-67
2022/11/22 01:08:54;;;;;;;2.90;2.30;;;22.30;57.80;;;;;;5052815;28;20453;-67
2022/11/22 01:11:20;;;;;;;3.05;2.75;;;22.40;57.60;;;;;;5072666;28;20123;-67
2022/11/22 01:13:46;;;;;;;3.33;2.65;;;22.30;57.60;;;;;;5047933;28;20025;-67
2022/11/22 01:16:12;;;;;;;2.97;2.65;;;22.40;57.60;;;;;;5010088;28;20075;-68
2022/11/22 01:18:39;;;;;;;3.47;2.90;;;22.20;57.40;;;;;;5072493;28;20147;-67
2022/11/22 01:21:05;;;;;;;2.40;2.15;;;22.40;57.50;;;;;;5072089;28;20032;-67
2022/11/22 01:23:32;;;;;;;4.57;2.75;;;22.30;57.40;;;;;;5071562;28;20401;-67
2022/11/22 01:25:58;;;;;;;2.60;2.33;;;22.40;57.30;;;;;;5071298;28;20094;-67
2022/11/22 01:28:24;;;;;;;3.13;2.05;;;22.40;57.20;;;;;;5067816;28;20028;-67
2022/11/22 01:30:51;;;;;;;3.10;2.60;;;22.30;57.20;;;;;;5059030;28;20345;-67
2022/11/22 01:33:18;;;;;;;2.90;2.53;;;22.30;57.10;;;;;;5071431;28;20040;-67
2022/11/22 01:35:44;;;;;;;3.40;3.10;;;22.40;57.00;;;;;;5072367;28;20032;-67
2022/11/22 01:38:10;;;;;;;3.22;2.60;;;22.40;56.90;;;;;;5060693;28;20045;-67
2022/11/22 01:40:36;;;;;;;3.08;2.40;;;22.40;57.00;;;;;;5069353;28;20032;-67
2022/11/22 01:43:03;;;;;;;3.00;2.70;;;22.40;56.70;;;;;;5072228;28;20037;-67
2022/11/22 01:45:29;;;;;;;3.83;3.05;;;22.30;56.70;;;;;;5070463;28;20033;-67
2022/11/22 01:47:57;;;;;;;2.50;2.30;;;22.40;56.80;;;;;;5071642;28;20035;-67
2022/11/22 01:50:24;;;;;;;3.10;2.58;;;22.30;57.10;;;;;;5068285;28;20466;-67
2022/11/22 01:52:51;;;;;;;3.90;2.85;;;22.30;57.00;;;;;;5071521;28;20077;-67
2022/11/22 01:55:18;;;;;;;3.08;2.60;;;22.20;56.90;;;;;;5062915;28;20482;-67
2022/11/22 01:57:45;;;;;;;3.10;2.75;;;22.30;57.00;;;;;;5054002;28;20037;-67
2022/11/22 02:00:15;;;;;;;4.97;2.85;;;22.20;57.00;;;;;;5061236;28;20542;-67
2022/11/22 02:02:49;;;;;;;3.30;2.90;;;22.10;57.00;;;;;;5050173;28;20114;-67
2022/11/22 02:05:18;;;;;;;2.92;2.50;;;22.10;57.00;;;;;;5051408;28;20083;-67
2022/11/22 02:07:54;;;;;;;3.38;2.70;;;22.10;57.00;;;;;;5051269;28;20057;-67
2022/11/22 02:10:23;;;;;;;3.03;2.75;;;22.10;57.00;;;;;;5066133;28;20171;-67
2022/11/22 02:12:56;;;;;;;3.05;2.75;;;22.10;56.90;;;;;;5071456;28;20068;-67
2022/11/22 02:15:22;;;;;;;2.88;2.58;;;22.20;56.80;;;;;;5069823;28;20064;-68
2022/11/22 02:17:48;;;;;;;3.50;2.83;;;22.20;56.80;;;;;;5071753;28;20035;-67
2022/11/22 02:20:18;;;;;;;3.80;3.13;;;22.20;56.80;;;;;;5070517;28;20028;-67
2022/11/22 02:22:57;;;;;;;4.13;3.40;;;22.20;56.80;;;;;;5053766;28;20032;-67
2022/11/22 02:25:40;;;;;;;4.18;3.33;;;22.20;56.70;;;;;;5053231;28;20163;-67
2022/11/22 02:28:12;;;;;;;4.72;3.15;;;22.30;56.70;;;;;;5051271;28;20489;-67
2022/11/22 02:30:39;;;;;;;3.42;2.90;;;22.20;56.50;;;;;;5062837;28;20032;-67
2022/11/22 02:33:05;;;;;;;3.92;3.53;;;22.20;56.50;;;;;;5051308;28;20045;-67
2022/11/22 02:35:32;;;;;;;6.00;3.63;;;22.30;56.50;;;;;;5067244;28;20036;-67
2022/11/22 02:38:00;;;;;;;4.68;3.65;;;22.30;56.50;;;;;;5070120;28;20033;-67
2022/11/22 02:40:31;;;;;;;4.30;3.47;;;22.20;56.20;;;;;;5070967;28;20032;-67
2022/11/22 02:43:01;;;;;;;3.88;3.33;;;22.20;56.30;;;;;;5071494;28;20036;-67
2022/11/22 02:45:27;;;;;;;3.58;3.13;;;22.10;56.30;;;;;;5060975;28;20041;-67
2022/11/22 02:48:02;;;;;;;4.18;3.28;;;22.10;56.40;;;;;;5070904;28;20037;-67
2022/11/22 02:50:28;;;;;;;4.68;3.50;;;22.10;56.40;;;;;;5052638;28;20052;-67
2022/11/22 02:52:54;;;;;;;4.68;3.40;;;22.00;56.40;;;;;;5059571;28;20386;-68
2022/11/22 02:55:20;;;;;;;5.68;3.85;;;22.00;56.40;;;;;;5051314;28;20402;-67
2022/11/22 02:57:46;;;;;;;3.97;3.15;;;22.00;56.40;;;;;;5050064;28;20427;-67
2022/11/22 03:00:12;;;;;;;3.60;3.30;;;22.00;56.30;;;;;;5057214;28;20127;-68
2022/11/22 03:02:39;;;;;;;4.22;3.55;;;22.00;56.30;;;;;;5069783;28;20032;-67
2022/11/22 03:05:05;;;;;;;3.63;3.25;;;21.90;56.40;;;;;;5070023;28;20051;-67
2022/11/22 03:07:31;;;;;;;5.50;3.45;;;22.00;56.30;;;;;;5070657;28;20044;-67
2022/11/22 03:09:57;;;;;;;3.13;2.83;;;21.90;56.40;;;;;;5069821;28;20021;-67
2022/11/22 03:12:22;;;;;;;3.88;3.20;;;21.90;56.30;;;;;;5070466;28;20764;-67
2022/11/22 03:14:48;;;;;;;5.28;4.03;;;22.00;56.10;;;;;;5069972;28;20025;-67
2022/11/22 03:17:15;;;;;;;4.90;3.95;;;22.00;56.10;;;;;;5067120;28;20036;-68
2022/11/22 03:19:41;;;;;;;5.65;3.63;;;22.00;56.00;;;;;;5069928;28;20051;-67
2022/11/22 03:22:07;;;;;;;4.20;3.50;;;22.10;56.10;;;;;;5069650;28;20480;-68
2022/11/22 03:24:34;;;;;;;5.80;3.88;;;22.10;56.10;;;;;;5074305;28;20094;-67
2022/11/22 03:26:59;;;;;;;3.95;3.28;;;22.10;56.00;;;;;;5074666;28;20036;-66
2022/11/22 03:29:25;;;;;;;4.25;3.20;;;22.10;56.00;;;;;;5056221;28;20103;-67
2022/11/22 03:31:51;;;;;;;4.22;3.40;;;22.20;55.90;;;;;;5073217;28;20119;-67
2022/11/22 03:34:17;;;;;;;3.90;3.53;;;22.20;55.90;;;;;;5074545;28;20450;-67
2022/11/22 03:36:43;;;;;;;4.32;3.40;;;22.20;55.70;;;;;;5074745;28;20349;-67
2022/11/22 03:39:09;;;;;;;4.85;3.65;;;22.00;55.70;;;;;;5072882;28;20435;-67
2022/11/22 03:41:35;;;;;;;3.22;2.92;;;22.20;55.60;;;;;;5074541;28;20120;-67
2022/11/22 03:44:02;;;;;;;3.92;3.50;;;22.10;55.70;;;;;;5074467;28;20069;-67
2022/11/22 03:46:28;;;;;;;3.40;3.10;;;22.00;55.60;;;;;;5072612;28;20040;-68
2022/11/22 03:48:54;;;;;;;3.67;3.28;;;22.00;55.60;;;;;;5072687;28;20029;-67
2022/11/22 03:51:20;;;;;;;4.53;3.60;;;22.00;55.70;;;;;;5065315;28;20520;-67
2022/11/22 03:53:46;;;;;;;4.50;3.95;;;22.00;55.70;;;;;;5055114;28;20040;-68
2022/11/22 03:56:12;;;;;;;4.95;4.03;;;21.90;55.60;;;;;;5073870;28;20025;-68
2022/11/22 03:58:38;;;;;;;5.90;4.00;;;21.90;55.60;;;;;;5073768;28;20494;-67
2022/11/22 04:01:04;;;;;;;4.70;3.60;;;21.90;55.70;;;;;;5067344;28;20040;-67
2022/11/22 04:03:30;;;;;;;4.93;3.60;;;21.90;55.60;;;;;;5072687;28;20079;-67
2022/11/22 04:05:56;;;;;;;4.05;3.65;;;22.00;55.60;;;;;;5073897;28;20045;-68
2022/11/22 04:08:23;;;;;;;4.30;3.45;;;22.00;55.60;;;;;;5073214;28;20103;-68
2022/11/22 04:10:50;;;;;;;6.03;3.38;;;21.80;55.60;;;;;;5073838;28;20049;-67
2022/11/22 04:13:16;;;;;;;3.97;3.08;;;21.90;55.60;;;;;;5060972;28;20025;-67
2022/11/22 04:15:42;;;;;;;5.40;3.35;;;22.00;55.50;;;;;;5063971;28;20109;-68
2022/11/22 04:18:09;;;;;;;4.50;3.55;;;21.90;55.50;;;;;;5017335;28;20052;-67
2022/11/22 04:23:22;;;;;;;3.38;2.78;;;21.90;55.40;;;;;;5039489;28;20032;-67
2022/11/22 04:25:51;;;;;;;3.80;3.30;;;22.00;55.30;;;;;;5058130;28;20090;-67
2022/11/22 04:28:23;;;;;;;3.45;3.08;;;22.00;55.30;;;;;;5043476;28;20032;-67
2022/11/22 04:33:35;;;;;;;4.72;3.30;;;22.10;55.30;;;;;;5072425;28;20060;-67
2022/11/22 04:36:01;;;;;;;5.40;3.72;;;22.20;55.00;;;;;;5073352;28;20445;-67
2022/11/22 04:38:27;;;;;;;5.35;3.40;;;22.10;54.90;;;;;;5068990;28;20028;-67
2022/11/22 04:40:53;;;;;;;4.68;3.28;;;22.10;54.70;;;;;;5053472;28;20040;-68
2022/11/22 04:46:10;;;;;;;5.43;3.53;;;22.30;54.70;;;;;;5064102;28;20086;-67
2022/11/22 04:48:36;;;;;;;4.70;3.47;;;22.30;54.40;;;;;;5065824;28;20042;-67
2022/11/22 04:53:48;;;;;;;4.75;3.80;;;22.20;54.50;;;;;;5068484;28;20041;-67
2022/11/22 04:56:14;;;;;;;4.18;3.10;;;22.10;54.90;;;;;;5053363;28;20033;-67
2022/11/22 04:58:40;;;;;;;4.82;3.13;;;22.00;55.00;;;;;;5053200;28;20036;-67
2022/11/22 05:01:06;;;;;;;4.10;3.63;;;22.00;55.10;;;;;;5057922;28;20048;-67
2022/11/22 05:03:32;;;;;;;3.85;3.17;;;22.10;55.00;;;;;;5052631;28;20104;-67
2022/11/22 05:06:01;;;;;;;6.32;3.88;;;21.90;55.00;;;;;;5052327;28;20128;-67
2022/11/22 05:08:28;;;;;;;4.30;3.90;;;21.90;55.10;;;;;;5057387;28;20093;-68
2022/11/22 05:10:58;;;;;;;5.15;3.85;;;21.90;55.20;;;;;;5072476;28;20055;-67
2022/11/22 05:13:32;;;;;;;4.22;3.55;;;21.90;55.40;;;;;;5072599;28;20070;-67
2022/11/22 05:15:59;;;;;;;4.95;3.80;;;22.00;55.10;;;;;;5071646;28;20090;-67
2022/11/22 05:18:26;;;;;;;4.80;3.72;;;22.00;55.00;;;;;;5072616;28;20037;-67
2022/11/22 05:20:52;;;;;;;5.47;4.35;;;22.10;55.00;;;;;;5070998;28;20089;-67
2022/11/22 05:26:04;;;;;;;5.13;4.00;;;22.10;54.80;;;;;;5052122;28;20144;-67
2022/11/22 05:28:33;;;;;;;5.18;3.97;;;22.10;54.90;;;;;;5034113;28;20398;-67
2022/11/22 05:31:04;;;;;;;4.10;3.33;;;22.30;55.00;;;;;;5060995;28;20028;-67
2022/11/22 05:33:30;;;;;;;4.18;3.70;;;22.10;54.90;;;;;;5071880;28;20036;-67
2022/11/22 05:35:59;;;;;;;6.53;3.83;;;22.20;54.90;;;;;;5071837;28;20063;-67
2022/11/22 05:38:25;;;;;;;5.13;3.90;;;22.10;54.90;;;;;;5067335;28;20505;-67
2022/11/22 05:40:51;;;;;;;4.65;4.10;;;22.20;54.80;;;;;;5051957;28;20025;-67
2022/11/22 05:43:17;;;;;;;4.60;3.83;;;22.00;54.60;;;;;;5051907;28;20041;-68
2022/11/22 05:45:43;;;;;;;4.78;4.28;;;22.10;54.80;;;;;;5019119;28;20461;-67
2022/11/22 05:48:09;;;;;;;5.72;4.07;;;22.00;54.70;;;;;;5072367;28;20041;-67
2022/11/22 05:50:35;;;;;;;5.72;4.15;;;22.00;54.70;;;;;;5045682;28;20032;-67
2022/11/22 05:53:02;;;;;;;5.07;4.18;;;22.00;54.80;;;;;;5051904;28;20100;-68
2022/11/22 05:55:29;;;;;;;5.30;4.07;;;21.90;54.90;;;;;;5051926;28;20055;-67
2022/11/22 05:58:00;;;;;;;4.55;3.95;;;21.80;54.80;;;;;;5051816;28;20033;-67
2022/11/22 06:00:28;;;;;;;4.22;3.83;;;21.80;54.80;;;;;;5059476;28;20052;-67
2022/11/22 06:03:02;;;;;;;4.75;4.18;;;21.90;55.00;;;;;;5051921;28;20378;-67
2022/11/22 06:05:29;;;;;;;5.85;4.60;;;21.90;54.90;;;;;;5060402;28;20128;-67
2022/11/22 06:07:59;;;;;;;6.97;4.00;;;21.80;55.00;;;;;;5071899;28;20127;-67
2022/11/22 06:10:26;;;;;;;6.13;4.70;;;21.80;55.10;;;;;;5070025;28;20170;-67
2022/11/22 06:12:52;;;;;;;6.75;5.00;;;21.80;55.10;;;;;;5071234;28;20462;-66
2022/11/22 06:15:18;;;;;;;6.22;4.90;;;21.90;55.10;;;;;;5069936;28;20060;-67
2022/11/22 06:17:44;;;;;;;5.38;3.92;;;21.80;55.00;;;;;;5071456;28;20170;-68
2022/11/22 06:20:10;;;;;;;6.20;4.35;;;21.80;54.90;;;;;;5069599;28;20596;-67
2022/11/22 06:22:36;;;;;;;6.40;4.90;;;21.90;54.90;;;;;;5051448;28;20074;-67
2022/11/22 06:25:02;;;;;;;7.05;5.20;;;21.90;54.80;;;;;;5066723;28;20028;-67
2022/11/22 06:27:28;;;;;;;5.97;5.38;;;21.90;54.70;;;;;;5071295;28;20453;-67
2022/11/22 06:29:54;;;;;;;6.25;5.13;;;21.80;54.60;;;;;;5070694;28;20025;-67
2022/11/22 06:32:20;;;;;;;7.07;4.90;;;21.90;54.70;;;;;;5060004;28;20488;-67
2022/11/22 06:34:46;;;;;;;12.13;5.55;;;21.90;54.70;;;;;;5066930;28;20037;-68
2022/11/22 06:37:15;;;;;;;5.55;4.53;;;21.90;54.70;;;;;;5055906;28;20033;-67
2022/11/22 06:39:41;;;;;;;6.22;4.72;;;21.90;54.70;;;;;;5060811;28;20033;-67
2022/11/22 06:42:07;;;;;;;6.40;4.80;;;21.90;54.70;;;;;;5067684;28;20036;-67
2022/11/22 06:44:33;;;;;;;9.52;4.35;;;21.90;54.60;;;;;;5025734;28;20036;-68
2022/11/22 06:46:59;;;;;;;5.00;3.75;;;22.00;54.90;;;;;;5064049;28;20088;-67
2022/11/22 06:49:25;;;;;;;4.68;3.53;;;21.80;54.40;;;;;;5069938;28;20052;-67
2022/11/22 06:51:51;;;;;;;4.35;3.70;;;22.00;54.30;;;;;;5059192;28;20139;-68
2022/11/22 06:54:17;;;;;;;4.72;4.32;;;22.10;53.90;;;;;;5052570;28;20037;-68
2022/11/22 06:56:43;;;;;;;5.07;4.18;;;22.10;50.10;;;;;;5050588;28;20052;-67
2022/11/22 06:59:09;;;;;;;6.05;4.35;;;22.10;46.80;;;;;;5051767;28;20041;-67
2022/11/22 07:01:36;;;;;;;6.13;4.20;;;22.10;47.30;;;;;;5063223;28;20044;-67
2022/11/22 07:04:02;;;;;;;6.03;4.40;;;22.30;48.70;;;;;;5060723;28;20032;-68
2022/11/22 07:06:32;;;;;;;6.75;5.25;;;22.30;47.70;;;;;;5055327;28;20056;-70
2022/11/22 07:09:00;;;;;;;5.78;4.90;;;22.50;48.50;;;;;;5059483;28;20142;-69
2022/11/22 07:11:28;;;;;;;6.10;5.30;;;22.60;48.60;;;;;;5057037;28;20485;-68
2022/11/22 07:13:56;;;;;;;6.97;5.00;;;22.60;49.90;;;;;;5059931;28;20033;-69
2022/11/22 07:16:23;;;;;;;8.07;5.30;;;22.70;47.80;;;;;;5060226;28;20093;-67
2022/11/22 07:18:49;;;;;;;8.48;5.63;;;22.50;46.40;;;;;;5057983;28;20025;-66
2022/11/22 07:21:20;;;;;;;7.15;5.68;;;22.60;45.80;;;;;;5054394;28;20087;-68
2022/11/22 07:23:48;;;;;;;7.82;5.75;;;22.60;45.50;;;;;;5051788;28;20040;-66
2022/11/22 07:26:16;;;;;;;7.28;6.10;;;22.60;45.80;;;;;;5066296;28;20115;-67
2022/11/22 07:28:42;;;;;;;8.25;5.53;;;22.80;44.80;;;;;;5066570;28;20031;-67
2022/11/22 07:31:10;;;;;;;7.32;5.63;;;22.70;45.70;;;;;;5059601;28;20489;-66
2022/11/22 07:33:36;;;;;;;7.60;5.78;;;22.80;46.30;;;;;;5068149;28;20544;-68
2022/11/22 07:36:19;;;;;;;7.57;5.55;;;22.90;46.20;;;;;;5050833;28;20401;-68
2022/11/22 07:38:47;;;;;;;7.47;5.53;;;23.00;44.70;;;;;;5060297;28;20036;-68
2022/11/22 07:41:14;;;;;;;6.93;5.72;;;23.00;44.90;;;;;;5057433;28;20041;-69
2022/11/22 07:43:40;;;;;;;8.80;6.20;;;23.10;44.00;;;;;;5050585;28;20135;-69
2022/11/22 07:46:28;;;;;;;9.75;6.70;;;23.10;44.30;;;;;;5056400;28;20060;-66
2022/11/22 07:48:54;;;;;;;8.52;6.00;;;23.10;43.20;;;;;;5051987;28;20033;-66
2022/11/22 07:51:20;;;;;;;8.07;6.03;;;23.20;54.00;;;;;;5070619;28;20024;-67
2022/11/22 07:53:46;;;;;;;8.77;5.53;;;23.20;54.90;;;;;;5065330;28;20028;-66
2022/11/22 07:56:13;;;;;;;7.43;4.95;;;23.20;55.60;;;;;;5050842;28;20032;-66
2022/11/22 07:58:39;;;;;;;6.53;4.18;;;23.10;56.80;;;;;;5065330;28;20048;-66
2022/11/22 08:01:11;;;;;;;7.28;5.65;;;23.10;56.40;;;;;;5062472;28;20148;-65
2022/11/22 08:03:37;;;;;;;6.45;4.90;;;23.20;56.30;;;;;;5054674;28;20060;-66
2022/11/22 08:06:06;;;;;;;8.02;5.97;;;23.20;55.60;;;;;;5057837;28;20064;-66
2022/11/22 08:08:33;;;;;;;7.50;5.43;;;23.40;54.10;;;;;;5061932;28;20449;-65
2022/11/22 08:10:59;;;;;;;6.20;5.20;;;23.30;52.80;;;;;;5065705;28;20082;-66
2022/11/22 08:13:25;;;;;;;7.22;5.75;;;23.30;51.80;;;;;;5062630;28;20041;-66
2022/11/22 08:15:51;;;;;;;8.63;5.65;;;23.30;51.20;;;;;;5015770;28;20359;-66
2022/11/22 08:18:18;;;;;;;6.13;4.30;;;23.40;51.20;;;;;;5064966;28;20067;-67
2022/11/22 08:20:44;;;;;;;8.23;5.85;;;23.50;51.40;;;;;;5060320;28;20031;-66
2022/11/22 08:23:10;;;;;;;8.27;4.55;;;23.50;51.30;;;;;;5060678;28;20025;-65
2022/11/22 08:25:36;;;;;;;8.02;5.20;;;23.50;51.20;;;;;;5061401;28;20051;-66
2022/11/22 08:28:02;;;;;;;6.22;4.93;;;23.50;51.00;;;;;;5031395;28;20150;-68
2022/11/22 08:30:28;;;;;;;7.07;5.22;;;23.50;50.70;;;;;;5063096;28;20666;-67
2022/11/22 08:32:54;;;;;;;9.50;5.88;;;23.50;50.60;;;;;;5060957;28;20044;-67
2022/11/22 08:35:21;;;;;;;9.45;6.82;;;23.50;50.50;;;;;;5027650;28;20043;-67
2022/11/22 08:37:46;;;;;;;9.57;7.35;;;23.60;50.50;;;;;;5062474;28;20033;-66
2022/11/22 08:40:13;;;;;;;8.68;6.82;;;23.50;50.30;;;;;;5059785;28;20025;-67
2022/11/22 08:42:39;;;;;;;8.85;6.63;;;23.50;50.90;;;;;;5072948;28;20059;-68
2022/11/22 08:45:05;;;;;;;11.30;6.50;;;23.30;51.60;;;;;;5071123;28;20044;-67
2022/11/22 08:47:31;;;;;;;9.23;6.72;;;23.30;52.30;;;;;;5064574;28;20338;-67
2022/11/22 08:49:57;;;;;;;13.05;6.93;;;23.20;53.10;;;;;;5037771;28;20040;-66
2022/11/22 08:52:23;;;;;;;9.15;7.95;;;23.20;53.80;;;;;;5071817;28;20042;-69
2022/11/22 08:54:49;;;;;;;11.30;7.28;;;23.20;45.00;;;;;;5063365;28;20029;-69
2022/11/22 08:57:15;;;;;;;8.82;6.38;;;23.30;46.10;;;;;;5068927;28;20444;-69
2022/11/22 08:59:41;;;;;;;14.07;6.40;;;23.60;43.20;;;;;;5072161;28;20120;-68
2022/11/22 09:02:08;;;;;;;10.63;6.85;;;23.70;52.60;;;;;;5072362;28;20036;-67
2022/11/22 09:04:34;;;;;;;8.93;6.75;;;23.60;53.10;;;;;;5019646;28;20044;-67
2022/11/22 09:07:00;;;;;;;9.70;7.00;;;23.80;53.30;;;;;;5067168;28;20119;-68
2022/11/22 09:09:26;;;;;;;8.70;6.50;;;23.70;53.40;;;;;;5033525;28;20410;-70
2022/11/22 09:11:52;;;;;;;10.98;7.82;;;23.60;53.50;;;;;;5067072;28;20025;-67
2022/11/22 09:14:18;;;;;;;9.85;7.40;;;23.50;53.70;;;;;;5070423;28;20090;-69
2022/11/22 09:16:44;;;;;;;11.88;7.68;;;23.40;54.60;;;;;;5071573;28;20493;-68
2022/11/22 09:19:10;;;;;;;8.50;7.60;;;23.30;55.50;;;;;;5051159;28;20041;-68
2022/11/22 09:21:36;;;;;;;22.65;10.25;;;23.30;51.60;;;;;;5057068;28;20133;-69
2022/11/22 09:24:02;;;;;;;9.88;8.27;;;23.60;49.80;;;;;;5072259;28;20115;-67
2022/11/22 09:26:28;;;;;;;13.13;7.30;;;23.70;42.90;;;;;;5062760;28;20463;-68
2022/11/22 09:28:55;;;;;;;9.93;8.05;;;23.60;41.70;;;;;;5056649;28;20676;-68
2022/11/22 09:31:23;;;;;;;13.10;7.72;;;23.60;41.10;;;;;;5064560;28;20363;-68
2022/11/22 09:33:49;;;;;;;10.07;7.72;;;23.50;40.80;;;;;;5065244;28;20497;-68
2022/11/22 09:36:16;;;;;;;9.15;8.20;;;23.60;40.20;;;;;;5057705;28;20061;-68
2022/11/22 09:38:43;;;;;;;9.70;7.78;;;23.50;40.30;;;;;;5060007;28;20032;-68
2022/11/22 09:41:15;;;;;;;11.00;7.72;;;23.50;45.90;;;;;;5035788;28;20037;-68
2022/11/22 09:43:54;;;;;;;12.27;8.70;;;23.60;51.70;;;;;;5065610;28;20029;-68
2022/11/22 09:46:44;;;;;;;11.70;7.85;;;23.60;52.20;;;;;;5066587;28;20673;-68
2022/11/22 09:49:28;;;;;;;10.95;7.75;;;23.40;52.80;;;;;;5070718;28;20044;-68
2022/11/22 09:52:03;;;;;;;10.50;7.82;;;23.50;53.40;;;;;;5068554;28;20054;-71
2022/11/22 09:54:45;;;;;;;11.25;8.02;;;23.20;53.10;;;;;;5017540;28;20523;-68
2022/11/22 09:57:18;;;;;;;13.95;9.43;;;23.20;53.90;;;;;;5051401;28;20024;-68
2022/11/22 09:59:49;;;;;;;14.23;8.55;;;23.10;54.30;;;;;;5058296;28;20051;-67
2022/11/22 10:02:37;;;;;;;11.98;8.20;;;23.10;54.40;;;;;;5017134;28;20029;-70
2022/11/22 10:05:14;;;;;;;13.02;8.70;;;23.10;54.60;;;;;;5037670;28;20734;-69
2022/11/22 10:07:56;;;;;;;12.23;8.95;;;23.10;54.80;;;;;;5063149;28;20048;-69
2022/11/22 10:10:31;;;;;;;10.48;7.95;;;23.10;54.70;;;;;;5062576;28;20040;-69
2022/11/22 10:13:03;;;;;;;11.73;7.57;;;23.10;55.00;;;;;;5056108;28;20121;-69
2022/11/22 10:15:47;;;;;;;10.68;7.60;;;23.00;56.80;;;;;;5052684;28;20462;-67
2022/11/22 10:18:48;;;;;;;12.85;7.80;;;22.90;57.50;;;;;;5062081;28;20400;-71
2022/11/22 10:21:14;;;;;;;13.70;9.10;;;22.90;57.10;;;;;;5065204;28;20028;-66
2022/11/22 10:23:42;;;;;;;12.60;7.97;;;22.90;55.30;;;;;;5059857;28;20033;-68
2022/11/22 10:26:20;;;;;;;10.23;7.53;;;23.00;54.90;;;;;;5068563;28;20086;-68
2022/11/22 10:28:49;;;;;;;11.55;8.63;;;22.90;54.80;;;;;;5065343;28;20039;-68
2022/11/22 10:31:29;;;;;;;10.75;7.00;;;22.90;54.90;;;;;;5061933;28;20474;-70
2022/11/22 10:34:29;;;;;;;9.50;6.28;;;22.80;55.40;;;;;;5061018;28;20021;-70
2022/11/22 10:37:19;;;;;;;11.10;6.88;;;22.90;56.10;;;;;;5052280;28;20391;-72
2022/11/22 10:40:01;;;;;;;9.07;6.57;;;22.80;55.60;;;;;;5066999;28;20467;-70
2022/11/22 10:42:46;;;;;;;10.95;7.00;;;23.10;48.30;;;;;;5056876;28;20064;-70
2022/11/22 10:45:31;;;;;;;8.82;6.57;;;23.10;46.10;;;;;;5056947;28;20123;-68
2022/11/22 10:48:32;;;;;;;7.35;6.32;;;23.40;44.50;;;;;;5057986;28;20051;-69
2022/11/22 10:51:01;;;;;;;9.98;7.38;;;23.40;43.20;;;;;;5069856;28;20102;-69
2022/11/22 10:53:43;;;;;;;10.20;7.82;;;23.40;42.40;;;;;;5067302;28;20020;-69
2022/11/22 10:56:29;;;;;;;18.45;7.22;;;23.60;53.20;;;;;;5062480;28;20028;-68
2022/11/22 10:59:36;;;;;;;11.18;6.95;;;24.10;57.80;;;;;;5055509;28;20029;-70
2022/11/22 11:02:08;;;;;;;10.00;7.47;;;24.30;46.90;;;;;;5051503;28;20043;-69
2022/11/22 11:04:38;;;;;;;11.07;6.60;;;24.00;48.00;;;;;;5055524;28;20378;-70
2022/11/22 11:07:10;;;;;;;10.68;8.77;;;24.10;45.30;;;;;;5050352;28;20505;-70
2022/11/22 11:09:51;;;;;;;11.67;7.77;;;24.00;44.00;;;;;;5051889;28;20036;-70
2022/11/22 11:12:31;;;;;;;10.50;7.45;;;24.10;45.30;;;;;;5061421;28;20433;-69
2022/11/22 11:15:04;;;;;;;10.50;7.90;;;24.10;46.50;;;;;;5061781;28;20036;-70
2022/11/22 11:17:36;;;;;;;12.07;7.72;;;24.10;45.50;;;;;;5068174;28;20032;-71
2022/11/22 11:20:20;;;;;;;10.30;7.40;;;24.10;45.90;;;;;;5063275;28;20044;-71
2022/11/22 11:22:46;;;;;;;10.68;7.30;;;23.90;44.90;;;;;;5055849;28;20068;-71
2022/11/22 11:25:39;;;;;;;8.32;6.07;;;24.10;44.80;;;;;;5055466;28;20037;-69
2022/11/22 11:28:07;;;;;;;10.33;7.97;;;24.00;41.50;;;;;;4992322;28;20033;-69
2022/11/22 11:30:43;;;;;;;10.43;7.80;;;24.10;44.00;;;;;;5053030;28;20036;-68
2022/11/22 11:33:25;;;;;;;11.88;7.50;;;24.00;44.40;;;;;;5058386;28;20032;-67
2022/11/22 11:36:05;;;;;;;8.82;7.43;;;24.20;45.10;;;;;;5054400;28;20033;-68
2022/11/22 11:38:44;;;;;;;12.00;8.48;;;24.10;46.40;;;;;;5060945;28;20029;-68
2022/11/22 11:41:24;;;;;;;11.15;7.07;;;24.20;43.60;;;;;;5051122;28;20122;-67
2022/11/22 11:43:52;;;;;;;8.85;7.85;;;24.20;44.30;;;;;;5054074;28;20094;-68
2022/11/22 11:46:24;;;;;;;12.30;7.20;;;24.10;44.00;;;;;;5072573;28;20040;-67
2022/11/22 11:49:12;;;;;;;9.30;6.82;;;24.20;45.50;;;;;;5068092;28;20032;-69
2022/11/22 11:51:42;;;;;;;11.02;7.72;;;24.10;43.90;;;;;;5044800;28;20039;-68
2022/11/22 11:54:21;;;;;;;9.57;7.40;;;24.10;43.00;;;;;;5058206;28;20043;-67
2022/11/22 11:57:04;;;;;;;10.15;7.75;;;24.10;42.70;;;;;;5058471;28;20116;-67
2022/11/22 11:59:39;;;;;;;12.77;7.43;;;24.00;42.70;;;;;;5064062;28;20040;-69
2022/11/22 12:02:20;;;;;;;14.65;7.70;;;24.00;41.80;;;;;;5069016;28;20678;-67
2022/11/22 12:04:56;;;;;;;10.90;7.53;;;24.10;41.90;;;;;;5055858;28;20044;-66
2022/11/22 12:07:27;;;;;;;9.65;8.10;;;23.90;42.00;;;;;;5069320;28;20172;-67
2022/11/22 12:09:57;;;;;;;9.10;6.97;;;23.90;41.40;;;;;;5065273;28;20068;-67
2022/11/22 12:12:32;;;;;;;8.95;7.05;;;23.90;51.10;;;;;;5070116;28;20439;-68
2022/11/22 12:15:05;;;;;;;10.73;7.30;;;24.00;52.40;;;;;;5072190;28;20041;-68
2022/11/22 12:17:35;;;;;;;11.27;7.65;;;24.10;53.20;;;;;;5060786;28;20033;-67
2022/11/22 12:20:28;;;;;;;9.63;7.60;;;23.90;53.60;;;;;;5069519;28;20039;-69
2022/11/22 12:23:23;;;;;;;11.15;8.20;;;23.90;54.00;;;;;;5067746;28;20090;-68
2022/11/22 12:25:55;;;;;;;9.90;7.47;;;23.80;54.00;;;;;;5066047;28;20040;-68
2022/11/22 12:28:25;;;;;;;11.85;7.57;;;23.80;54.50;;;;;;5049355;28;20036;-68
2022/11/22 12:31:13;;;;;;;14.27;8.40;;;23.80;54.60;;;;;;5064508;28;20033;-67
2022/11/22 12:33:43;;;;;;;12.75;9.07;;;23.80;54.70;;;;;;5064467;28;20115;-68
2022/11/22 12:36:21;;;;;;;13.45;9.35;;;23.80;54.70;;;;;;5072909;28;20454;-69
2022/11/22 12:38:50;;;;;;;13.07;8.48;;;23.90;54.90;;;;;;5063087;28;20032;-70
2022/11/22 12:41:19;;;;;;;13.68;7.82;;;23.70;55.00;;;;;;5063439;28;20040;-69
2022/11/22 12:43:52;;;;;;;10.65;7.68;;;23.80;55.00;;;;;;5070975;28;20041;-69
2022/11/22 12:46:49;;;;;;;10.43;8.32;;;23.60;54.90;;;;;;5065972;28;20068;-69
2022/11/22 12:49:21;;;;;;;11.77;7.60;;;23.60;55.00;;;;;;5011375;28;20050;-69
2022/11/22 12:52:24;;;;;;;9.73;7.20;;;23.80;55.40;;;;;;5010073;28;20037;-70
2022/11/22 12:55:03;;;;;;;10.00;7.22;;;23.70;55.50;;;;;;5020212;28;20057;-70
2022/11/22 12:57:47;;;;;;;12.20;7.93;;;23.80;55.40;;;;;;5012802;28;20044;-70
2022/11/22 13:00:17;;;;;;;10.13;7.22;;;23.80;55.10;;;;;;5018641;28;20059;-70
2022/11/22 13:02:51;;;;;;;9.10;6.63;;;23.90;55.30;;;;;;5010808;28;20041;-70
2022/11/22 13:05:22;;;;;;;7.18;5.63;;;23.80;55.30;;;;;;5010622;28;20065;-70
2022/11/22 13:08:15;;;;;;;10.82;6.78;;;23.80;55.30;;;;;;5009807;28;20053;-70
2022/11/22 13:10:47;;;;;;;8.38;6.30;;;23.70;55.30;;;;;;5007424;28;20183;-70
2022/11/22 13:13:31;;;;;;;10.60;6.13;;;23.80;55.20;;;;;;5010575;28;20042;-70